sensor_id;sensor_type;location;lat;lon;timestamp;temperature;humidity
573;DHT22;271;51.114;13.780;2023-03-04T00:00:51;1.30;1.00
573;DHT22;271;51.114;13.780;2023-03-04T00:03:39;1.20;1.00
573;DHT22;271;51.114;13.780;2023-03-04T00:06:26;1.30;1.00
573;DHT22;271;51.114;13.780;2023-03-04T00:09:14;1.50;1.00
573;DHT22;271;51.114;13.780;2023-03-04T00:12:04;1.30;1.00
573;DHT22;271;51.114;13.780;2023-03-04T00:14:53;1.30;1.00
573;DHT22;271;51.114;13.780;2023-03-04T00:17:41;1.40;1.00
573;DHT22;271;51.114;13.780;2023-03-04T00:20:31;1.30;1.00
573;DHT22;271;51.114;13.780;2023-03-04T00:23:19;1.40;1.00
573;DHT22;271;51.114;13.780;2023-03-04T00:26:06;1.30;1.00
573;DHT22;271;51.114;13.780;2023-03-04T00:28:56;1.40;1.00
573;DHT22;271;51.114;13.780;2023-03-04T00:31:44;1.40;1.00
573;DHT22;271;51.114;13.780;2023-03-04T00:34:31;1.40;1.00
573;DHT22;271;51.114;13.780;2023-03-04T00:37:19;1.40;1.00
573;DHT22;271;51.114;13.780;2023-03-04T00:40:08;1.40;1.00
573;DHT22;271;51.114;13.780;2023-03-04T00:42:56;1.50;1.00
573;DHT22;271;51.114;13.780;2023-03-04T00:45:45;1.50;1.00
573;DHT22;271;51.114;13.780;2023-03-04T00:48:32;1.50;1.00
573;DHT22;271;51.114;13.780;2023-03-04T00:51:20;1.60;1.00
573;DHT22;271;51.114;13.780;2023-03-04T00:54:08;1.50;1.00
573;DHT22;271;51.114;13.780;2023-03-04T00:56:55;1.50;1.00
573;DHT22;271;51.114;13.780;2023-03-04T00:59:43;1.40;1.00
573;DHT22;271;51.114;13.780;2023-03-04T01:02:32;1.50;1.00
573;DHT22;271;51.114;13.780;2023-03-04T01:05:20;1.50;1.00
573;DHT22;271;51.114;13.780;2023-03-04T01:08:08;1.50;1.00
573;DHT22;271;51.114;13.780;2023-03-04T01:10:56;1.50;1.00
573;DHT22;271;51.114;13.780;2023-03-04T01:13:44;1.50;1.00
573;DHT22;271;51.114;13.780;2023-03-04T01:16:32;1.40;1.00
573;DHT22;271;51.114;13.780;2023-03-04T01:19:21;1.40;1.00
573;DHT22;271;51.114;13.780;2023-03-04T01:22:08;1.30;1.00
573;DHT22;271;51.114;13.780;2023-03-04T01:24:57;1.30;1.00
573;DHT22;271;51.114;13.780;2023-03-04T01:27:45;1.30;1.00
573;DHT22;271;51.114;13.780;2023-03-04T01:30:33;1.40;1.00
573;DHT22;271;51.114;13.780;2023-03-04T01:33:20;1.40;1.00
573;DHT22;271;51.114;13.780;2023-03-04T01:36:09;1.40;1.00
573;DHT22;271;51.114;13.780;2023-03-04T01:38:57;1.40;1.00
573;DHT22;271;51.114;13.780;2023-03-04T01:41:45;1.40;1.00
573;DHT22;271;51.114;13.780;2023-03-04T01:44:33;1.50;1.00
573;DHT22;271;51.114;13.780;2023-03-04T01:47:22;1.50;1.00
573;DHT22;271;51.114;13.780;2023-03-04T01:50:16;1.50;1.00
573;DHT22;271;51.114;13.780;2023-03-04T01:53:15;1.50;1.00
573;DHT22;271;51.114;13.780;2023-03-04T01:56:12;1.50;1.00
573;DHT22;271;51.114;13.780;2023-03-04T01:59:09;1.50;1.00
573;DHT22;271;51.114;13.780;2023-03-04T02:01:58;1.40;1.00
573;DHT22;271;51.114;13.780;2023-03-04T02:04:47;1.40;1.00
573;DHT22;271;51.114;13.780;2023-03-04T02:07:34;1.50;1.00
573;DHT22;271;51.114;13.780;2023-03-04T02:10:24;1.50;1.00
573;DHT22;271;51.114;13.780;2023-03-04T02:13:13;1.60;1.00
573;DHT22;271;51.114;13.780;2023-03-04T02:16:01;1.50;1.00
573;DHT22;271;51.114;13.780;2023-03-04T02:18:49;1.40;1.00
573;DHT22;271;51.114;13.780;2023-03-04T02:21:36;1.40;1.00
573;DHT22;271;51.114;13.780;2023-03-04T02:24:27;1.40;1.00
573;DHT22;271;51.114;13.780;2023-03-04T02:27:17;1.50;1.00
573;DHT22;271;51.114;13.780;2023-03-04T02:30:05;1.50;1.00
573;DHT22;271;51.114;13.780;2023-03-04T02:32:53;1.50;1.00
573;DHT22;271;51.114;13.780;2023-03-04T02:35:41;1.50;1.00
573;DHT22;271;51.114;13.780;2023-03-04T02:38:29;1.40;1.00
573;DHT22;271;51.114;13.780;2023-03-04T02:41:19;1.50;1.00
573;DHT22;271;51.114;13.780;2023-03-04T02:44:17;1.50;1.00
573;DHT22;271;51.114;13.780;2023-03-04T02:47:07;1.40;1.00
573;DHT22;271;51.114;13.780;2023-03-04T02:49:55;1.50;1.00
573;DHT22;271;51.114;13.780;2023-03-04T02:52:43;1.50;1.00
573;DHT22;271;51.114;13.780;2023-03-04T02:55:31;1.40;1.00
573;DHT22;271;51.114;13.780;2023-03-04T02:58:18;1.50;1.00
573;DHT22;271;51.114;13.780;2023-03-04T03:01:07;1.50;1.00
573;DHT22;271;51.114;13.780;2023-03-04T03:03:55;1.50;1.00
573;DHT22;271;51.114;13.780;2023-03-04T03:06:43;1.40;1.00
573;DHT22;271;51.114;13.780;2023-03-04T03:09:31;1.50;1.00
573;DHT22;271;51.114;13.780;2023-03-04T03:12:19;1.50;1.00
573;DHT22;271;51.114;13.780;2023-03-04T03:15:07;1.50;1.00
573;DHT22;271;51.114;13.780;2023-03-04T03:17:56;1.50;1.00
573;DHT22;271;51.114;13.780;2023-03-04T03:20:44;1.60;1.00
573;DHT22;271;51.114;13.780;2023-03-04T03:23:32;1.60;1.00
573;DHT22;271;51.114;13.780;2023-03-04T03:26:20;1.60;1.00
573;DHT22;271;51.114;13.780;2023-03-04T03:29:08;1.50;1.00
573;DHT22;271;51.114;13.780;2023-03-04T03:31:56;1.50;1.00
573;DHT22;271;51.114;13.780;2023-03-04T03:34:45;1.50;1.00
573;DHT22;271;51.114;13.780;2023-03-04T03:37:32;1.50;1.00
573;DHT22;271;51.114;13.780;2023-03-04T03:40:20;1.50;1.00
573;DHT22;271;51.114;13.780;2023-03-04T03:43:08;1.50;1.00
573;DHT22;271;51.114;13.780;2023-03-04T03:45:56;1.50;1.00
573;DHT22;271;51.114;13.780;2023-03-04T03:48:43;1.50;1.00
573;DHT22;271;51.114;13.780;2023-03-04T03:51:33;1.50;1.00
573;DHT22;271;51.114;13.780;2023-03-04T03:54:20;1.50;1.00
573;DHT22;271;51.114;13.780;2023-03-04T03:57:08;1.50;1.00
573;DHT22;271;51.114;13.780;2023-03-04T03:59:56;1.50;1.00
573;DHT22;271;51.114;13.780;2023-03-04T04:02:43;1.50;1.00
573;DHT22;271;51.114;13.780;2023-03-04T04:05:31;1.60;1.00
573;DHT22;271;51.114;13.780;2023-03-04T04:08:20;1.50;1.00
573;DHT22;271;51.114;13.780;2023-03-04T04:11:08;1.50;1.00
573;DHT22;271;51.114;13.780;2023-03-04T04:13:56;1.50;1.00
573;DHT22;271;51.114;13.780;2023-03-04T04:16:43;1.60;1.00
573;DHT22;271;51.114;13.780;2023-03-04T04:19:31;1.50;1.00
573;DHT22;271;51.114;13.780;2023-03-04T04:22:19;1.50;1.00
573;DHT22;271;51.114;13.780;2023-03-04T04:25:09;1.60;1.00
573;DHT22;271;51.114;13.780;2023-03-04T04:27:57;1.60;1.00
573;DHT22;271;51.114;13.780;2023-03-04T04:30:44;1.60;1.00
573;DHT22;271;51.114;13.780;2023-03-04T04:33:32;1.60;1.00
573;DHT22;271;51.114;13.780;2023-03-04T04:36:20;1.70;1.00
573;DHT22;271;51.114;13.780;2023-03-04T04:39:08;1.70;1.00
573;DHT22;271;51.114;13.780;2023-03-04T04:41:57;1.70;1.00
573;DHT22;271;51.114;13.780;2023-03-04T04:44:44;1.70;1.00
573;DHT22;271;51.114;13.780;2023-03-04T04:47:32;1.70;1.00
573;DHT22;271;51.114;13.780;2023-03-04T04:50:20;1.70;1.00
573;DHT22;271;51.114;13.780;2023-03-04T04:53:10;1.70;1.00
573;DHT22;271;51.114;13.780;2023-03-04T04:55:58;1.70;1.00
573;DHT22;271;51.114;13.780;2023-03-04T04:58:47;1.70;1.00
573;DHT22;271;51.114;13.780;2023-03-04T05:01:35;1.70;1.00
573;DHT22;271;51.114;13.780;2023-03-04T05:04:23;1.70;1.00
573;DHT22;271;51.114;13.780;2023-03-04T05:07:11;1.80;1.00
573;DHT22;271;51.114;13.780;2023-03-04T05:09:58;1.80;1.00
573;DHT22;271;51.114;13.780;2023-03-04T05:12:46;1.80;1.00
573;DHT22;271;51.114;13.780;2023-03-04T05:15:37;1.80;1.00
573;DHT22;271;51.114;13.780;2023-03-04T05:18:26;1.70;1.00
573;DHT22;271;51.114;13.780;2023-03-04T05:21:14;1.80;1.00
573;DHT22;271;51.114;13.780;2023-03-04T05:24:02;1.80;1.00
573;DHT22;271;51.114;13.780;2023-03-04T05:26:49;1.70;1.00
573;DHT22;271;51.114;13.780;2023-03-04T05:29:37;1.80;1.00
573;DHT22;271;51.114;13.780;2023-03-04T05:32:26;1.80;1.00
573;DHT22;271;51.114;13.780;2023-03-04T05:35:14;1.80;1.00
573;DHT22;271;51.114;13.780;2023-03-04T05:38:02;1.80;1.00
573;DHT22;271;51.114;13.780;2023-03-04T05:40:56;1.80;1.00
573;DHT22;271;51.114;13.780;2023-03-04T05:43:44;1.90;1.00
573;DHT22;271;51.114;13.780;2023-03-04T05:46:32;1.80;1.00
573;DHT22;271;51.114;13.780;2023-03-04T05:49:21;1.80;1.00
573;DHT22;271;51.114;13.780;2023-03-04T05:52:09;1.90;1.00
573;DHT22;271;51.114;13.780;2023-03-04T05:54:57;1.80;1.00
573;DHT22;271;51.114;13.780;2023-03-04T05:57:44;1.80;1.00
573;DHT22;271;51.114;13.780;2023-03-04T06:00:32;1.80;1.00
573;DHT22;271;51.114;13.780;2023-03-04T06:03:23;1.80;1.00
573;DHT22;271;51.114;13.780;2023-03-04T06:06:12;1.90;1.00
573;DHT22;271;51.114;13.780;2023-03-04T06:09:00;1.80;1.00
573;DHT22;271;51.114;13.780;2023-03-04T06:11:48;1.90;1.00
573;DHT22;271;51.114;13.780;2023-03-04T06:14:36;1.80;1.00
573;DHT22;271;51.114;13.780;2023-03-04T06:17:23;1.90;1.00
573;DHT22;271;51.114;13.780;2023-03-04T06:20:11;2.00;1.00
573;DHT22;271;51.114;13.780;2023-03-04T06:23:00;1.90;1.00
573;DHT22;271;51.114;13.780;2023-03-04T06:25:51;1.90;1.00
573;DHT22;271;51.114;13.780;2023-03-04T06:28:39;1.90;1.00
573;DHT22;271;51.114;13.780;2023-03-04T06:31:27;2.00;1.00
573;DHT22;271;51.114;13.780;2023-03-04T06:34:14;2.10;1.00
573;DHT22;271;51.114;13.780;2023-03-04T06:37:02;2.10;1.00
573;DHT22;271;51.114;13.780;2023-03-04T06:39:51;2.00;1.00
573;DHT22;271;51.114;13.780;2023-03-04T06:42:40;2.00;1.00
573;DHT22;271;51.114;13.780;2023-03-04T06:45:28;2.10;1.00
573;DHT22;271;51.114;13.780;2023-03-04T06:48:15;2.10;1.00
573;DHT22;271;51.114;13.780;2023-03-04T06:51:07;2.10;1.00
573;DHT22;271;51.114;13.780;2023-03-04T06:53:55;2.10;1.00
573;DHT22;271;51.114;13.780;2023-03-04T06:56:44;2.20;1.00
573;DHT22;271;51.114;13.780;2023-03-04T06:59:33;2.20;1.00
573;DHT22;271;51.114;13.780;2023-03-04T07:02:21;2.20;1.00
573;DHT22;271;51.114;13.780;2023-03-04T07:05:09;2.20;1.00
573;DHT22;271;51.114;13.780;2023-03-04T07:07:57;2.20;1.00
573;DHT22;271;51.114;13.780;2023-03-04T07:10:45;2.10;1.00
573;DHT22;271;51.114;13.780;2023-03-04T07:13:34;2.10;1.00
573;DHT22;271;51.114;13.780;2023-03-04T07:16:23;2.10;1.00
573;DHT22;271;51.114;13.780;2023-03-04T07:19:11;2.20;1.00
573;DHT22;271;51.114;13.780;2023-03-04T07:21:58;2.20;1.00
573;DHT22;271;51.114;13.780;2023-03-04T07:24:46;2.20;1.00
573;DHT22;271;51.114;13.780;2023-03-04T07:27:34;2.20;1.00
573;DHT22;271;51.114;13.780;2023-03-04T07:30:25;2.30;1.00
573;DHT22;271;51.114;13.780;2023-03-04T07:33:13;2.20;1.00
573;DHT22;271;51.114;13.780;2023-03-04T07:36:01;2.10;1.00
573;DHT22;271;51.114;13.780;2023-03-04T07:38:49;2.20;1.00
573;DHT22;271;51.114;13.780;2023-03-04T07:41:40;2.20;1.00
573;DHT22;271;51.114;13.780;2023-03-04T07:44:28;2.30;1.00
573;DHT22;271;51.114;13.780;2023-03-04T07:47:17;2.30;1.00
573;DHT22;271;51.114;13.780;2023-03-04T07:50:05;2.30;1.00
573;DHT22;271;51.114;13.780;2023-03-04T07:52:53;2.30;1.00
573;DHT22;271;51.114;13.780;2023-03-04T07:55:41;2.40;1.00
573;DHT22;271;51.114;13.780;2023-03-04T07:58:29;2.50;1.00
573;DHT22;271;51.114;13.780;2023-03-04T08:01:18;2.50;1.00
573;DHT22;271;51.114;13.780;2023-03-04T08:04:07;2.50;1.00
573;DHT22;271;51.114;13.780;2023-03-04T08:06:55;2.40;1.00
573;DHT22;271;51.114;13.780;2023-03-04T08:09:43;2.50;1.00
573;DHT22;271;51.114;13.780;2023-03-04T08:12:31;2.50;1.00
573;DHT22;271;51.114;13.780;2023-03-04T08:15:18;2.50;1.00
573;DHT22;271;51.114;13.780;2023-03-04T08:18:06;2.50;1.00
573;DHT22;271;51.114;13.780;2023-03-04T08:20:55;2.60;1.00
573;DHT22;271;51.114;13.780;2023-03-04T08:23:43;2.60;1.00
573;DHT22;271;51.114;13.780;2023-03-04T08:26:33;2.70;1.00
573;DHT22;271;51.114;13.780;2023-03-04T08:29:24;2.70;1.00
573;DHT22;271;51.114;13.780;2023-03-04T08:32:12;2.60;1.00
573;DHT22;271;51.114;13.780;2023-03-04T08:35:00;2.70;1.00
573;DHT22;271;51.114;13.780;2023-03-04T08:37:49;2.70;1.00
573;DHT22;271;51.114;13.780;2023-03-04T08:40:37;2.70;1.00
573;DHT22;271;51.114;13.780;2023-03-04T08:43:25;2.60;1.00
573;DHT22;271;51.114;13.780;2023-03-04T08:46:13;2.60;1.00
573;DHT22;271;51.114;13.780;2023-03-04T08:49:01;2.70;1.00
573;DHT22;271;51.114;13.780;2023-03-04T08:51:49;2.70;1.00
573;DHT22;271;51.114;13.780;2023-03-04T08:54:38;2.70;1.00
573;DHT22;271;51.114;13.780;2023-03-04T08:57:26;2.60;1.00
573;DHT22;271;51.114;13.780;2023-03-04T09:00:14;2.70;1.00
573;DHT22;271;51.114;13.780;2023-03-04T09:03:03;2.80;1.00
573;DHT22;271;51.114;13.780;2023-03-04T09:05:51;2.70;1.00
573;DHT22;271;51.114;13.780;2023-03-04T09:08:39;2.80;1.00
573;DHT22;271;51.114;13.780;2023-03-04T09:11:28;2.80;1.00
573;DHT22;271;51.114;13.780;2023-03-04T09:14:15;2.90;1.00
573;DHT22;271;51.114;13.780;2023-03-04T09:17:03;2.90;1.00
573;DHT22;271;51.114;13.780;2023-03-04T09:19:51;2.90;1.00
573;DHT22;271;51.114;13.780;2023-03-04T09:22:40;3.10;1.00
573;DHT22;271;51.114;13.780;2023-03-04T09:25:28;2.90;1.00
573;DHT22;271;51.114;13.780;2023-03-04T09:28:17;2.90;1.00
573;DHT22;271;51.114;13.780;2023-03-04T09:31:10;3.00;1.00
573;DHT22;271;51.114;13.780;2023-03-04T09:33:58;3.00;1.00
573;DHT22;271;51.114;13.780;2023-03-04T09:36:46;3.00;1.00
573;DHT22;271;51.114;13.780;2023-03-04T09:39:34;3.00;1.00
573;DHT22;271;51.114;13.780;2023-03-04T09:42:26;3.10;1.00
573;DHT22;271;51.114;13.780;2023-03-04T09:45:18;3.10;1.00
573;DHT22;271;51.114;13.780;2023-03-04T09:48:09;3.20;1.00
573;DHT22;271;51.114;13.780;2023-03-04T09:51:10;3.20;1.00
573;DHT22;271;51.114;13.780;2023-03-04T09:54:06;3.20;1.00
573;DHT22;271;51.114;13.780;2023-03-04T09:56:59;3.10;1.00
573;DHT22;271;51.114;13.780;2023-03-04T09:59:51;3.20;1.00
573;DHT22;271;51.114;13.780;2023-03-04T10:03:03;3.20;1.00
573;DHT22;271;51.114;13.780;2023-03-04T10:05:54;3.30;1.00
573;DHT22;271;51.114;13.780;2023-03-04T10:08:49;3.30;1.00
573;DHT22;271;51.114;13.780;2023-03-04T10:11:40;3.40;1.00
573;DHT22;271;51.114;13.780;2023-03-04T10:14:43;3.40;1.00
573;DHT22;271;51.114;13.780;2023-03-04T10:17:35;3.40;1.00
573;DHT22;271;51.114;13.780;2023-03-04T10:20:27;3.50;1.00
573;DHT22;271;51.114;13.780;2023-03-04T10:23:21;3.50;1.00
573;DHT22;271;51.114;13.780;2023-03-04T10:26:12;3.50;1.00
573;DHT22;271;51.114;13.780;2023-03-04T10:29:00;3.50;1.00
573;DHT22;271;51.114;13.780;2023-03-04T10:31:52;3.50;1.00
573;DHT22;271;51.114;13.780;2023-03-04T10:34:41;3.50;1.00
573;DHT22;271;51.114;13.780;2023-03-04T10:37:44;3.40;1.00
573;DHT22;271;51.114;13.780;2023-03-04T10:40:37;3.40;1.00
573;DHT22;271;51.114;13.780;2023-03-04T10:43:26;3.50;1.00
573;DHT22;271;51.114;13.780;2023-03-04T10:46:14;3.50;1.00
573;DHT22;271;51.114;13.780;2023-03-04T10:49:02;3.50;1.00
573;DHT22;271;51.114;13.780;2023-03-04T10:51:52;3.50;1.00
573;DHT22;271;51.114;13.780;2023-03-04T10:54:46;3.50;1.00
573;DHT22;271;51.114;13.780;2023-03-04T10:57:37;3.50;1.00
573;DHT22;271;51.114;13.780;2023-03-04T11:00:32;3.50;1.00
573;DHT22;271;51.114;13.780;2023-03-04T11:03:29;3.50;1.00
573;DHT22;271;51.114;13.780;2023-03-04T11:06:19;3.60;1.00
573;DHT22;271;51.114;13.780;2023-03-04T11:09:20;3.60;1.00
573;DHT22;271;51.114;13.780;2023-03-04T11:12:12;3.60;1.00
573;DHT22;271;51.114;13.780;2023-03-04T11:15:01;3.60;1.00
573;DHT22;271;51.114;13.780;2023-03-04T11:17:53;3.60;1.00
573;DHT22;271;51.114;13.780;2023-03-04T11:20:43;3.60;1.00
573;DHT22;271;51.114;13.780;2023-03-04T11:23:38;3.70;1.00
573;DHT22;271;51.114;13.780;2023-03-04T11:26:32;3.80;1.00
573;DHT22;271;51.114;13.780;2023-03-04T11:29:25;3.80;1.00
573;DHT22;271;51.114;13.780;2023-03-04T11:32:19;3.90;1.00
573;DHT22;271;51.114;13.780;2023-03-04T11:35:14;4.00;1.00
573;DHT22;271;51.114;13.780;2023-03-04T11:38:07;4.00;1.00
573;DHT22;271;51.114;13.780;2023-03-04T11:40:59;4.00;1.00
573;DHT22;271;51.114;13.780;2023-03-04T11:43:51;4.10;1.00
573;DHT22;271;51.114;13.780;2023-03-04T11:50:06;4.10;1.00
573;DHT22;271;51.114;13.780;2023-03-04T11:53:14;4.20;1.00
573;DHT22;271;51.114;13.780;2023-03-04T11:56:24;4.20;1.00
573;DHT22;271;51.114;13.780;2023-03-04T11:59:45;4.20;1.00
573;DHT22;271;51.114;13.780;2023-03-04T12:02:42;4.20;1.00
573;DHT22;271;51.114;13.780;2023-03-04T12:05:42;4.10;1.00
573;DHT22;271;51.114;13.780;2023-03-04T12:08:42;4.20;1.00
573;DHT22;271;51.114;13.780;2023-03-04T12:11:44;4.20;1.00
573;DHT22;271;51.114;13.780;2023-03-04T12:14:40;4.20;1.00
573;DHT22;271;51.114;13.780;2023-03-04T12:17:39;4.20;1.00
573;DHT22;271;51.114;13.780;2023-03-04T12:20:49;4.30;1.00
573;DHT22;271;51.114;13.780;2023-03-04T12:23:59;4.30;1.00
573;DHT22;271;51.114;13.780;2023-03-04T12:26:50;4.30;1.00
573;DHT22;271;51.114;13.780;2023-03-04T12:29:46;4.30;1.00
573;DHT22;271;51.114;13.780;2023-03-04T12:32:42;4.40;1.00
573;DHT22;271;51.114;13.780;2023-03-04T12:35:37;4.40;1.00
573;DHT22;271;51.114;13.780;2023-03-04T12:38:37;4.50;1.00
573;DHT22;271;51.114;13.780;2023-03-04T12:41:39;4.50;1.00
573;DHT22;271;51.114;13.780;2023-03-04T12:44:31;4.50;1.00
573;DHT22;271;51.114;13.780;2023-03-04T12:47:30;4.60;1.00
573;DHT22;271;51.114;13.780;2023-03-04T12:50:38;4.60;1.00
573;DHT22;271;51.114;13.780;2023-03-04T12:53:32;4.70;1.00
573;DHT22;271;51.114;13.780;2023-03-04T12:56:25;4.80;1.00
573;DHT22;271;51.114;13.780;2023-03-04T12:59:17;4.80;1.00
573;DHT22;271;51.114;13.780;2023-03-04T13:02:36;4.80;1.00
573;DHT22;271;51.114;13.780;2023-03-04T13:05:55;4.90;1.00
573;DHT22;271;51.114;13.780;2023-03-04T13:09:04;5.00;1.00
573;DHT22;271;51.114;13.780;2023-03-04T13:12:02;5.10;1.00
573;DHT22;271;51.114;13.780;2023-03-04T13:18:31;5.20;1.00
573;DHT22;271;51.114;13.780;2023-03-04T13:21:23;5.20;1.00
573;DHT22;271;51.114;13.780;2023-03-04T13:24:45;5.20;1.00
573;DHT22;271;51.114;13.780;2023-03-04T13:27:45;5.20;1.00
573;DHT22;271;51.114;13.780;2023-03-04T13:30:40;5.30;1.00
573;DHT22;271;51.114;13.780;2023-03-04T13:33:48;5.30;1.00
573;DHT22;271;51.114;13.780;2023-03-04T13:36:55;5.30;1.00
573;DHT22;271;51.114;13.780;2023-03-04T13:39:44;5.40;1.00
573;DHT22;271;51.114;13.780;2023-03-04T13:42:40;5.30;1.00
573;DHT22;271;51.114;13.780;2023-03-04T13:45:34;5.30;1.00
573;DHT22;271;51.114;13.780;2023-03-04T13:48:32;5.40;1.00
573;DHT22;271;51.114;13.780;2023-03-04T13:51:24;5.50;1.00
573;DHT22;271;51.114;13.780;2023-03-04T13:54:15;5.60;1.00
573;DHT22;271;51.114;13.780;2023-03-04T13:57:17;5.60;1.00
573;DHT22;271;51.114;13.780;2023-03-04T14:00:11;5.70;1.00
573;DHT22;271;51.114;13.780;2023-03-04T14:03:12;5.70;1.00
573;DHT22;271;51.114;13.780;2023-03-04T14:06:17;5.70;1.00
573;DHT22;271;51.114;13.780;2023-03-04T14:09:14;5.50;1.00
573;DHT22;271;51.114;13.780;2023-03-04T14:12:03;5.70;1.00
573;DHT22;271;51.114;13.780;2023-03-04T14:15:02;5.70;1.00
573;DHT22;271;51.114;13.780;2023-03-04T14:17:52;5.70;1.00
573;DHT22;271;51.114;13.780;2023-03-04T14:20:47;5.80;1.00
573;DHT22;271;51.114;13.780;2023-03-04T14:23:35;5.80;1.00
573;DHT22;271;51.114;13.780;2023-03-04T14:26:24;5.80;1.00
573;DHT22;271;51.114;13.780;2023-03-04T14:29:24;5.80;1.00
573;DHT22;271;51.114;13.780;2023-03-04T14:32:12;5.80;1.00
573;DHT22;271;51.114;13.780;2023-03-04T14:35:04;5.80;1.00
573;DHT22;271;51.114;13.780;2023-03-04T14:37:56;5.70;1.00
573;DHT22;271;51.114;13.780;2023-03-04T14:40:47;5.60;1.00
573;DHT22;271;51.114;13.780;2023-03-04T14:43:40;5.60;1.00
573;DHT22;271;51.114;13.780;2023-03-04T14:46:34;5.60;1.00
573;DHT22;271;51.114;13.780;2023-03-04T14:49:25;5.60;1.00
573;DHT22;271;51.114;13.780;2023-03-04T14:52:31;5.60;1.00
573;DHT22;271;51.114;13.780;2023-03-04T14:55:22;5.60;1.00
573;DHT22;271;51.114;13.780;2023-03-04T14:58:20;5.60;1.00
573;DHT22;271;51.114;13.780;2023-03-04T15:01:15;5.60;1.00
573;DHT22;271;51.114;13.780;2023-03-04T15:04:04;5.70;1.00
573;DHT22;271;51.114;13.780;2023-03-04T15:06:53;5.60;1.00
573;DHT22;271;51.114;13.780;2023-03-04T15:09:49;5.60;1.00
573;DHT22;271;51.114;13.780;2023-03-04T15:12:37;5.60;1.00
573;DHT22;271;51.114;13.780;2023-03-04T15:15:46;5.50;1.00
573;DHT22;271;51.114;13.780;2023-03-04T15:18:36;5.50;1.00
573;DHT22;271;51.114;13.780;2023-03-04T15:21:30;5.50;1.00
573;DHT22;271;51.114;13.780;2023-03-04T15:24:18;5.50;1.00
573;DHT22;271;51.114;13.780;2023-03-04T15:27:09;5.50;1.00
573;DHT22;271;51.114;13.780;2023-03-04T15:29:59;5.60;1.00
573;DHT22;271;51.114;13.780;2023-03-04T15:32:47;5.60;1.00
573;DHT22;271;51.114;13.780;2023-03-04T15:35:37;5.60;1.00
573;DHT22;271;51.114;13.780;2023-03-04T15:38:26;5.60;1.00
573;DHT22;271;51.114;13.780;2023-03-04T15:41:17;5.60;1.00
573;DHT22;271;51.114;13.780;2023-03-04T15:44:07;5.50;1.00
573;DHT22;271;51.114;13.780;2023-03-04T15:46:57;5.40;1.00
573;DHT22;271;51.114;13.780;2023-03-04T15:49:45;5.40;1.00
573;DHT22;271;51.114;13.780;2023-03-04T15:52:34;5.40;1.00
573;DHT22;271;51.114;13.780;2023-03-04T15:55:25;5.30;1.00
573;DHT22;271;51.114;13.780;2023-03-04T15:58:13;5.30;1.00
573;DHT22;271;51.114;13.780;2023-03-04T16:01:02;5.20;1.00
573;DHT22;271;51.114;13.780;2023-03-04T16:03:49;5.20;1.00
573;DHT22;271;51.114;13.780;2023-03-04T16:06:37;5.30;1.00
573;DHT22;271;51.114;13.780;2023-03-04T16:09:26;5.10;1.00
573;DHT22;271;51.114;13.780;2023-03-04T16:12:14;5.10;1.00
573;DHT22;271;51.114;13.780;2023-03-04T16:15:05;5.10;1.00
573;DHT22;271;51.114;13.780;2023-03-04T16:17:53;5.00;1.00
573;DHT22;271;51.114;13.780;2023-03-04T16:20:44;5.00;1.00
573;DHT22;271;51.114;13.780;2023-03-04T16:23:37;5.00;1.00
573;DHT22;271;51.114;13.780;2023-03-04T16:26:27;5.00;1.00
573;DHT22;271;51.114;13.780;2023-03-04T16:29:16;5.00;1.00
573;DHT22;271;51.114;13.780;2023-03-04T16:32:04;5.00;1.00
573;DHT22;271;51.114;13.780;2023-03-04T16:34:52;5.00;1.00
573;DHT22;271;51.114;13.780;2023-03-04T16:37:41;4.90;1.00
573;DHT22;271;51.114;13.780;2023-03-04T16:40:30;4.90;1.00
573;DHT22;271;51.114;13.780;2023-03-04T16:43:19;4.90;1.00
573;DHT22;271;51.114;13.780;2023-03-04T16:46:07;4.90;1.00
573;DHT22;271;51.114;13.780;2023-03-04T16:48:54;4.90;1.00
573;DHT22;271;51.114;13.780;2023-03-04T16:51:46;4.90;1.00
573;DHT22;271;51.114;13.780;2023-03-04T16:54:35;4.80;1.00
573;DHT22;271;51.114;13.780;2023-03-04T16:57:23;4.80;1.00
573;DHT22;271;51.114;13.780;2023-03-04T17:00:17;4.80;1.00
573;DHT22;271;51.114;13.780;2023-03-04T17:03:05;4.80;1.00
573;DHT22;271;51.114;13.780;2023-03-04T17:05:53;4.80;1.00
573;DHT22;271;51.114;13.780;2023-03-04T17:08:41;4.80;1.00
573;DHT22;271;51.114;13.780;2023-03-04T17:11:29;4.70;1.00
573;DHT22;271;51.114;13.780;2023-03-04T17:14:17;4.80;1.00
573;DHT22;271;51.114;13.780;2023-03-04T17:17:06;4.70;1.00
573;DHT22;271;51.114;13.780;2023-03-04T17:19:54;4.70;1.00
573;DHT22;271;51.114;13.780;2023-03-04T17:22:41;4.80;1.00
573;DHT22;271;51.114;13.780;2023-03-04T17:25:29;4.70;1.00
573;DHT22;271;51.114;13.780;2023-03-04T17:28:17;4.70;1.00
573;DHT22;271;51.114;13.780;2023-03-04T17:31:08;4.80;1.00
573;DHT22;271;51.114;13.780;2023-03-04T17:33:57;4.70;1.00
573;DHT22;271;51.114;13.780;2023-03-04T17:36:45;4.80;1.00
573;DHT22;271;51.114;13.780;2023-03-04T17:39:32;4.80;1.00
573;DHT22;271;51.114;13.780;2023-03-04T17:42:20;4.70;1.00
573;DHT22;271;51.114;13.780;2023-03-04T17:45:09;4.80;1.00
573;DHT22;271;51.114;13.780;2023-03-04T17:47:57;4.80;1.00
573;DHT22;271;51.114;13.780;2023-03-04T17:50:49;4.70;1.00
573;DHT22;271;51.114;13.780;2023-03-04T17:53:38;4.60;1.00
573;DHT22;271;51.114;13.780;2023-03-04T17:56:26;4.60;1.00
573;DHT22;271;51.114;13.780;2023-03-04T17:59:16;4.50;1.00
573;DHT22;271;51.114;13.780;2023-03-04T18:02:04;4.50;1.00
573;DHT22;271;51.114;13.780;2023-03-04T18:04:52;4.50;1.00
573;DHT22;271;51.114;13.780;2023-03-04T18:07:41;4.50;1.00
573;DHT22;271;51.114;13.780;2023-03-04T18:10:29;4.50;1.00
573;DHT22;271;51.114;13.780;2023-03-04T18:13:16;4.50;1.00
573;DHT22;271;51.114;13.780;2023-03-04T18:16:04;4.50;1.00
573;DHT22;271;51.114;13.780;2023-03-04T18:18:55;4.40;1.00
573;DHT22;271;51.114;13.780;2023-03-04T18:21:44;4.40;1.00
573;DHT22;271;51.114;13.780;2023-03-04T18:24:33;4.40;1.00
573;DHT22;271;51.114;13.780;2023-03-04T18:27:21;4.30;1.00
573;DHT22;271;51.114;13.780;2023-03-04T18:30:10;4.40;1.00
573;DHT22;271;51.114;13.780;2023-03-04T18:32:58;4.30;1.00
573;DHT22;271;51.114;13.780;2023-03-04T18:35:47;4.40;1.00
573;DHT22;271;51.114;13.780;2023-03-04T18:38:35;4.40;1.00
573;DHT22;271;51.114;13.780;2023-03-04T18:41:24;4.30;1.00
573;DHT22;271;51.114;13.780;2023-03-04T18:44:12;4.30;1.00
573;DHT22;271;51.114;13.780;2023-03-04T18:46:59;4.30;1.00
573;DHT22;271;51.114;13.780;2023-03-04T18:49:48;4.30;1.00
573;DHT22;271;51.114;13.780;2023-03-04T18:52:36;4.30;1.00
573;DHT22;271;51.114;13.780;2023-03-04T18:55:24;4.30;1.00
573;DHT22;271;51.114;13.780;2023-03-04T18:58:13;4.30;1.00
573;DHT22;271;51.114;13.780;2023-03-04T19:01:03;4.20;1.00
573;DHT22;271;51.114;13.780;2023-03-04T19:03:52;4.20;1.00
573;DHT22;271;51.114;13.780;2023-03-04T19:06:44;4.30;1.00
573;DHT22;271;51.114;13.780;2023-03-04T19:09:32;4.20;1.00
573;DHT22;271;51.114;13.780;2023-03-04T19:12:20;4.10;1.00
573;DHT22;271;51.114;13.780;2023-03-04T19:15:10;4.30;1.00
573;DHT22;271;51.114;13.780;2023-03-04T19:17:58;4.10;1.00
573;DHT22;271;51.114;13.780;2023-03-04T19:20:46;4.20;1.00
573;DHT22;271;51.114;13.780;2023-03-04T19:23:34;4.30;1.00
573;DHT22;271;51.114;13.780;2023-03-04T19:26:21;4.20;1.00
573;DHT22;271;51.114;13.780;2023-03-04T19:29:09;4.20;1.00
573;DHT22;271;51.114;13.780;2023-03-04T19:31:58;4.20;1.00
573;DHT22;271;51.114;13.780;2023-03-04T19:34:46;4.10;1.00
573;DHT22;271;51.114;13.780;2023-03-04T19:37:34;4.20;1.00